Terminal Aerodrome Forecast
Issued by NWS Northern Indiana

Home | Current Version | Previous Version | Text Only | Print | Product List | Glossary On
Versions: 1 2 3 4 5 6 7 8 9 10 11 12
000
FTUS43 KIWX 032338
TAFFWA
TAF
KFWA 032338Z 0400/0424 22004KT P6SM SCT060
      TEMPO 0410/0412 3SM BR
     FM041400 24005KT P6SM BKN035
     FM041900 25008KT P6SM SCT045=

USA.gov is the U.S. government's official web portal to all federal, state and local government web resources and services.